sensor_id;sensor_type;location;lat;lon;timestamp;P1;durP1;ratioP1;P2;durP2;ratioP2
16171;SDS011;8192;53.596;10.166;2022-12-18T00:00:05;1.40;;;1.30;;
16171;SDS011;8192;53.596;10.166;2022-12-18T00:02:35;14.33;;;3.30;;
16171;SDS011;8192;53.596;10.166;2022-12-18T00:05:05;0.27;;;0.20;;
16171;SDS011;8192;53.596;10.166;2022-12-18T00:07:36;0.00;;;0.00;;
16171;SDS011;8192;53.596;10.166;2022-12-18T00:10:06;0.73;;;0.73;;
16171;SDS011;8192;53.596;10.166;2022-12-18T00:12:38;0.17;;;0.17;;
16171;SDS011;8192;53.596;10.166;2022-12-18T00:15:08;2.80;;;0.87;;
16171;SDS011;8192;53.596;10.166;2022-12-18T00:17:38;0.77;;;0.23;;
16171;SDS011;8192;53.596;10.166;2022-12-18T00:20:08;4.13;;;3.27;;
16171;SDS011;8192;53.596;10.166;2022-12-18T00:22:37;0.20;;;0.20;;
16171;SDS011;8192;53.596;10.166;2022-12-18T00:25:12;1.80;;;1.60;;
16171;SDS011;8192;53.596;10.166;2022-12-18T00:27:48;1.03;;;0.63;;
16171;SDS011;8192;53.596;10.166;2022-12-18T00:30:19;1.27;;;1.03;;
16171;SDS011;8192;53.596;10.166;2022-12-18T00:32:47;3.13;;;0.53;;
16171;SDS011;8192;53.596;10.166;2022-12-18T00:35:16;0.20;;;0.20;;
16171;SDS011;8192;53.596;10.166;2022-12-18T00:37:45;1.50;;;0.97;;
16171;SDS011;8192;53.596;10.166;2022-12-18T00:40:19;0.00;;;0.00;;
16171;SDS011;8192;53.596;10.166;2022-12-18T00:42:50;0.00;;;0.00;;
16171;SDS011;8192;53.596;10.166;2022-12-18T00:45:28;0.00;;;0.00;;
16171;SDS011;8192;53.596;10.166;2022-12-18T00:48:20;0.10;;;0.10;;
16171;SDS011;8192;53.596;10.166;2022-12-18T00:51:05;0.77;;;0.73;;
16171;SDS011;8192;53.596;10.166;2022-12-18T00:53:53;0.63;;;0.63;;
16171;SDS011;8192;53.596;10.166;2022-12-18T00:59:41;4.43;;;2.50;;
16171;SDS011;8192;53.596;10.166;2022-12-18T01:02:17;2.20;;;1.43;;
16171;SDS011;8192;53.596;10.166;2022-12-18T01:05:04;1.53;;;1.43;;
16171;SDS011;8192;53.596;10.166;2022-12-18T01:07:52;3.73;;;2.47;;
16171;SDS011;8192;53.596;10.166;2022-12-18T01:10:26;1.50;;;1.20;;
16171;SDS011;8192;53.596;10.166;2022-12-18T01:16:26;0.47;;;0.47;;
16171;SDS011;8192;53.596;10.166;2022-12-18T01:19:31;1.53;;;1.43;;
16171;SDS011;8192;53.596;10.166;2022-12-18T01:22:15;0.10;;;0.10;;
16171;SDS011;8192;53.596;10.166;2022-12-18T01:25:14;0.30;;;0.30;;
16171;SDS011;8192;53.596;10.166;2022-12-18T01:28:00;4.67;;;1.17;;
16171;SDS011;8192;53.596;10.166;2022-12-18T01:31:13;12.07;;;0.97;;
16171;SDS011;8192;53.596;10.166;2022-12-18T01:34:15;0.43;;;0.43;;
16171;SDS011;8192;53.596;10.166;2022-12-18T01:37:00;13.80;;;0.57;;
16171;SDS011;8192;53.596;10.166;2022-12-18T01:40:01;8.40;;;2.67;;
16171;SDS011;8192;53.596;10.166;2022-12-18T01:49:42;0.77;;;0.77;;
16171;SDS011;8192;53.596;10.166;2022-12-18T01:55:52;6.07;;;2.67;;
16171;SDS011;8192;53.596;10.166;2022-12-18T01:58:55;1.13;;;0.80;;
16171;SDS011;8192;53.596;10.166;2022-12-18T02:09:18;0.00;;;0.00;;
16171;SDS011;8192;53.596;10.166;2022-12-18T02:13:01;0.00;;;0.00;;
16171;SDS011;8192;53.596;10.166;2022-12-18T02:19:51;1.30;;;1.20;;
16171;SDS011;8192;53.596;10.166;2022-12-18T03:29:06;0.00;;;0.00;;
16171;SDS011;8192;53.596;10.166;2022-12-18T03:31:48;0.50;;;0.50;;
16171;SDS011;8192;53.596;10.166;2022-12-18T03:34:37;0.10;;;0.10;;
16171;SDS011;8192;53.596;10.166;2022-12-18T03:37:32;0.17;;;0.17;;
16171;SDS011;8192;53.596;10.166;2022-12-18T03:40:20;2.83;;;1.63;;
16171;SDS011;8192;53.596;10.166;2022-12-18T03:49:49;0.17;;;0.17;;
16171;SDS011;8192;53.596;10.166;2022-12-18T03:52:42;1.73;;;1.00;;
16171;SDS011;8192;53.596;10.166;2022-12-18T03:55:30;0.00;;;0.00;;
16171;SDS011;8192;53.596;10.166;2022-12-18T03:58:23;0.00;;;0.00;;
16171;SDS011;8192;53.596;10.166;2022-12-18T04:08:19;0.07;;;0.07;;
16171;SDS011;8192;53.596;10.166;2022-12-18T04:11:01;0.00;;;0.00;;
16171;SDS011;8192;53.596;10.166;2022-12-18T04:13:30;1.80;;;0.97;;
16171;SDS011;8192;53.596;10.166;2022-12-18T04:16:00;1.30;;;0.70;;
16171;SDS011;8192;53.596;10.166;2022-12-18T04:18:30;2.80;;;2.20;;
16171;SDS011;8192;53.596;10.166;2022-12-18T04:20:57;0.20;;;0.20;;
16171;SDS011;8192;53.596;10.166;2022-12-18T04:27:21;4.50;;;2.60;;
16171;SDS011;8192;53.596;10.166;2022-12-18T04:29:57;0.43;;;0.43;;
16171;SDS011;8192;53.596;10.166;2022-12-18T04:33:01;0.20;;;0.20;;
16171;SDS011;8192;53.596;10.166;2022-12-18T04:35:41;0.00;;;0.00;;
16171;SDS011;8192;53.596;10.166;2022-12-18T04:38:49;0.00;;;0.00;;
16171;SDS011;8192;53.596;10.166;2022-12-18T04:41:41;0.00;;;0.00;;
16171;SDS011;8192;53.596;10.166;2022-12-18T04:44:11;1.77;;;1.00;;
16171;SDS011;8192;53.596;10.166;2022-12-18T04:46:39;2.17;;;1.27;;
16171;SDS011;8192;53.596;10.166;2022-12-18T04:49:10;0.87;;;0.87;;
16171;SDS011;8192;53.596;10.166;2022-12-18T04:51:39;3.70;;;1.53;;
16171;SDS011;8192;53.596;10.166;2022-12-18T04:54:10;4.23;;;1.13;;
16171;SDS011;8192;53.596;10.166;2022-12-18T04:56:38;0.83;;;0.50;;
16171;SDS011;8192;53.596;10.166;2022-12-18T04:59:06;0.00;;;0.00;;
16171;SDS011;8192;53.596;10.166;2022-12-18T05:04:23;0.93;;;0.87;;
16171;SDS011;8192;53.596;10.166;2022-12-18T05:07:02;0.90;;;0.60;;
16171;SDS011;8192;53.596;10.166;2022-12-18T05:09:30;0.13;;;0.13;;
16171;SDS011;8192;53.596;10.166;2022-12-18T05:12:02;0.00;;;0.00;;
16171;SDS011;8192;53.596;10.166;2022-12-18T05:14:31;1.73;;;1.60;;
16171;SDS011;8192;53.596;10.166;2022-12-18T05:17:08;0.00;;;0.00;;
16171;SDS011;8192;53.596;10.166;2022-12-18T05:19:37;0.63;;;0.63;;
16171;SDS011;8192;53.596;10.166;2022-12-18T05:22:08;0.67;;;0.67;;
16171;SDS011;8192;53.596;10.166;2022-12-18T05:24:36;0.97;;;0.97;;
16171;SDS011;8192;53.596;10.166;2022-12-18T05:27:07;0.10;;;0.10;;
16171;SDS011;8192;53.596;10.166;2022-12-18T05:29:37;1.27;;;1.17;;
16171;SDS011;8192;53.596;10.166;2022-12-18T05:32:06;1.30;;;1.07;;
16171;SDS011;8192;53.596;10.166;2022-12-18T05:34:37;4.27;;;1.13;;
16171;SDS011;8192;53.596;10.166;2022-12-18T05:37:09;2.37;;;2.27;;
16171;SDS011;8192;53.596;10.166;2022-12-18T05:39:55;2.77;;;2.47;;
16171;SDS011;8192;53.596;10.166;2022-12-18T05:42:25;0.10;;;0.10;;
16171;SDS011;8192;53.596;10.166;2022-12-18T05:44:55;2.23;;;1.60;;
16171;SDS011;8192;53.596;10.166;2022-12-18T05:47:26;4.30;;;2.10;;
16171;SDS011;8192;53.596;10.166;2022-12-18T05:50:02;0.00;;;0.00;;
16171;SDS011;8192;53.596;10.166;2022-12-18T05:52:33;9.33;;;3.00;;
16171;SDS011;8192;53.596;10.166;2022-12-18T05:55:06;3.47;;;2.27;;
16171;SDS011;8192;53.596;10.166;2022-12-18T05:57:47;0.00;;;0.00;;
16171;SDS011;8192;53.596;10.166;2022-12-18T06:00:22;1.20;;;0.70;;
16171;SDS011;8192;53.596;10.166;2022-12-18T06:06:17;0.00;;;0.00;;
16171;SDS011;8192;53.596;10.166;2022-12-18T06:08:49;1.00;;;0.97;;
16171;SDS011;8192;53.596;10.166;2022-12-18T06:11:22;0.63;;;0.63;;
16171;SDS011;8192;53.596;10.166;2022-12-18T06:13:52;1.90;;;1.57;;
16171;SDS011;8192;53.596;10.166;2022-12-18T06:16:22;0.13;;;0.13;;
16171;SDS011;8192;53.596;10.166;2022-12-18T06:18:50;0.00;;;0.00;;
16171;SDS011;8192;53.596;10.166;2022-12-18T06:21:23;2.00;;;1.90;;
16171;SDS011;8192;53.596;10.166;2022-12-18T06:23:51;0.00;;;0.00;;
16171;SDS011;8192;53.596;10.166;2022-12-18T06:26:20;0.30;;;0.27;;
16171;SDS011;8192;53.596;10.166;2022-12-18T06:28:54;0.00;;;0.00;;
16171;SDS011;8192;53.596;10.166;2022-12-18T06:31:22;0.20;;;0.20;;
16171;SDS011;8192;53.596;10.166;2022-12-18T06:33:55;0.00;;;0.00;;
16171;SDS011;8192;53.596;10.166;2022-12-18T06:36:34;0.00;;;0.00;;
16171;SDS011;8192;53.596;10.166;2022-12-18T06:39:03;0.00;;;0.00;;
16171;SDS011;8192;53.596;10.166;2022-12-18T06:41:36;0.00;;;0.00;;
16171;SDS011;8192;53.596;10.166;2022-12-18T06:44:07;2.70;;;1.47;;
16171;SDS011;8192;53.596;10.166;2022-12-18T06:50:10;0.27;;;0.27;;
16171;SDS011;8192;53.596;10.166;2022-12-18T06:52:54;0.57;;;0.50;;
16171;SDS011;8192;53.596;10.166;2022-12-18T06:55:23;0.00;;;0.00;;
16171;SDS011;8192;53.596;10.166;2022-12-18T06:57:57;1.37;;;1.27;;
16171;SDS011;8192;53.596;10.166;2022-12-18T07:00:39;0.67;;;0.67;;
16171;SDS011;8192;53.596;10.166;2022-12-18T07:03:07;3.87;;;2.73;;
16171;SDS011;8192;53.596;10.166;2022-12-18T07:05:45;0.63;;;0.63;;
16171;SDS011;8192;53.596;10.166;2022-12-18T07:08:16;3.33;;;2.93;;
16171;SDS011;8192;53.596;10.166;2022-12-18T07:10:47;9.60;;;4.00;;
16171;SDS011;8192;53.596;10.166;2022-12-18T07:13:16;8.67;;;4.17;;
16171;SDS011;8192;53.596;10.166;2022-12-18T07:15:47;5.43;;;2.30;;
16171;SDS011;8192;53.596;10.166;2022-12-18T07:18:23;0.90;;;0.90;;
16171;SDS011;8192;53.596;10.166;2022-12-18T07:21:10;3.13;;;2.77;;
16171;SDS011;8192;53.596;10.166;2022-12-18T07:26:52;1.63;;;1.50;;
16171;SDS011;8192;53.596;10.166;2022-12-18T07:29:22;5.17;;;2.90;;
16171;SDS011;8192;53.596;10.166;2022-12-18T07:32:09;8.70;;;7.03;;
16171;SDS011;8192;53.596;10.166;2022-12-18T07:34:38;5.90;;;3.47;;
16171;SDS011;8192;53.596;10.166;2022-12-18T07:37:07;1.90;;;1.50;;
16171;SDS011;8192;53.596;10.166;2022-12-18T07:39:39;5.33;;;1.87;;
16171;SDS011;8192;53.596;10.166;2022-12-18T07:42:08;3.03;;;1.57;;
16171;SDS011;8192;53.596;10.166;2022-12-18T07:44:54;5.57;;;1.90;;
16171;SDS011;8192;53.596;10.166;2022-12-18T07:47:23;5.43;;;2.77;;
16171;SDS011;8192;53.596;10.166;2022-12-18T07:49:55;6.70;;;4.03;;
16171;SDS011;8192;53.596;10.166;2022-12-18T07:52:41;2.70;;;2.03;;
16171;SDS011;8192;53.596;10.166;2022-12-18T07:58:47;0.63;;;0.63;;
16171;SDS011;8192;53.596;10.166;2022-12-18T08:01:34;1.77;;;1.23;;
16171;SDS011;8192;53.596;10.166;2022-12-18T08:07:08;5.40;;;1.83;;
16171;SDS011;8192;53.596;10.166;2022-12-18T08:09:59;1.40;;;1.30;;
16171;SDS011;8192;53.596;10.166;2022-12-18T08:12:30;6.43;;;2.93;;
16171;SDS011;8192;53.596;10.166;2022-12-18T08:15:14;2.87;;;2.23;;
16171;SDS011;8192;53.596;10.166;2022-12-18T08:17:43;5.13;;;1.50;;
16171;SDS011;8192;53.596;10.166;2022-12-18T08:20:20;1.90;;;1.73;;
16171;SDS011;8192;53.596;10.166;2022-12-18T08:22:52;14.20;;;5.87;;
16171;SDS011;8192;53.596;10.166;2022-12-18T08:25:22;10.37;;;4.77;;
16171;SDS011;8192;53.596;10.166;2022-12-18T08:27:54;16.70;;;7.63;;
16171;SDS011;8192;53.596;10.166;2022-12-18T08:30:22;16.57;;;4.90;;
16171;SDS011;8192;53.596;10.166;2022-12-18T08:32:54;9.57;;;4.40;;
16171;SDS011;8192;53.596;10.166;2022-12-18T08:35:23;2.53;;;1.60;;
16171;SDS011;8192;53.596;10.166;2022-12-18T08:37:52;13.20;;;6.17;;
16171;SDS011;8192;53.596;10.166;2022-12-18T08:40:22;18.90;;;6.23;;
16171;SDS011;8192;53.596;10.166;2022-12-18T08:42:51;4.60;;;2.73;;
16171;SDS011;8192;53.596;10.166;2022-12-18T08:45:38;2.53;;;2.33;;
16171;SDS011;8192;53.596;10.166;2022-12-18T08:48:09;10.97;;;2.87;;
16171;SDS011;8192;53.596;10.166;2022-12-18T08:50:37;0.23;;;0.17;;
16171;SDS011;8192;53.596;10.166;2022-12-18T08:53:05;10.50;;;4.73;;
16171;SDS011;8192;53.596;10.166;2022-12-18T08:55:48;3.00;;;1.53;;
16171;SDS011;8192;53.596;10.166;2022-12-18T08:58:19;0.77;;;0.63;;
16171;SDS011;8192;53.596;10.166;2022-12-18T09:00:50;9.87;;;3.87;;
16171;SDS011;8192;53.596;10.166;2022-12-18T09:03:19;10.83;;;3.57;;
16171;SDS011;8192;53.596;10.166;2022-12-18T09:05:47;5.43;;;2.10;;
16171;SDS011;8192;53.596;10.166;2022-12-18T09:08:24;10.83;;;5.27;;
16171;SDS011;8192;53.596;10.166;2022-12-18T09:11:02;8.70;;;2.67;;
16171;SDS011;8192;53.596;10.166;2022-12-18T09:13:38;8.10;;;3.70;;
16171;SDS011;8192;53.596;10.166;2022-12-18T09:16:48;5.80;;;2.07;;
16171;SDS011;8192;53.596;10.166;2022-12-18T09:19:24;3.60;;;2.00;;
16171;SDS011;8192;53.596;10.166;2022-12-18T09:22:09;0.07;;;0.07;;
16171;SDS011;8192;53.596;10.166;2022-12-18T09:24:40;5.20;;;3.30;;
16171;SDS011;8192;53.596;10.166;2022-12-18T09:27:09;5.57;;;2.50;;
16171;SDS011;8192;53.596;10.166;2022-12-18T09:29:39;1.03;;;1.00;;
16171;SDS011;8192;53.596;10.166;2022-12-18T09:32:10;1.07;;;0.57;;
16171;SDS011;8192;53.596;10.166;2022-12-18T09:34:41;4.80;;;2.73;;
16171;SDS011;8192;53.596;10.166;2022-12-18T09:37:10;2.00;;;1.27;;
16171;SDS011;8192;53.596;10.166;2022-12-18T09:39:49;9.53;;;3.30;;
16171;SDS011;8192;53.596;10.166;2022-12-18T09:42:33;1.50;;;0.37;;
16171;SDS011;8192;53.596;10.166;2022-12-18T09:45:04;6.07;;;3.37;;
16171;SDS011;8192;53.596;10.166;2022-12-18T09:47:45;3.93;;;2.00;;
16171;SDS011;8192;53.596;10.166;2022-12-18T09:50:22;1.90;;;1.80;;
16171;SDS011;8192;53.596;10.166;2022-12-18T09:53:07;1.57;;;1.10;;
16171;SDS011;8192;53.596;10.166;2022-12-18T09:55:58;16.07;;;6.33;;
16171;SDS011;8192;53.596;10.166;2022-12-18T09:59:01;3.20;;;1.00;;
16171;SDS011;8192;53.596;10.166;2022-12-18T10:22:30;1.97;;;1.77;;
16171;SDS011;8192;53.596;10.166;2022-12-18T10:28:23;19.30;;;7.83;;
16171;SDS011;8192;53.596;10.166;2022-12-18T10:47:18;9.03;;;2.80;;
16171;SDS011;8192;53.596;10.166;2022-12-18T10:50:11;0.97;;;0.87;;
16171;SDS011;8192;53.596;10.166;2022-12-18T10:53:13;15.53;;;7.53;;
16171;SDS011;8192;53.596;10.166;2022-12-18T11:23:10;6.67;;;2.80;;
16171;SDS011;8192;53.596;10.166;2022-12-18T11:29:10;6.17;;;2.27;;
16171;SDS011;8192;53.596;10.166;2022-12-18T11:35:16;1.80;;;1.33;;
16171;SDS011;8192;53.596;10.166;2022-12-18T12:12:05;9.23;;;3.53;;
16171;SDS011;8192;53.596;10.166;2022-12-18T12:14:54;3.03;;;2.43;;
16171;SDS011;8192;53.596;10.166;2022-12-18T12:17:44;17.13;;;7.30;;
16171;SDS011;8192;53.596;10.166;2022-12-18T12:20:24;2.23;;;1.43;;
16171;SDS011;8192;53.596;10.166;2022-12-18T12:23:09;14.63;;;6.10;;
16171;SDS011;8192;53.596;10.166;2022-12-18T12:26:06;15.33;;;8.97;;
16171;SDS011;8192;53.596;10.166;2022-12-18T12:29:22;12.90;;;5.80;;
16171;SDS011;8192;53.596;10.166;2022-12-18T12:32:16;7.67;;;2.20;;
16171;SDS011;8192;53.596;10.166;2022-12-18T12:35:10;7.57;;;4.37;;
16171;SDS011;8192;53.596;10.166;2022-12-18T12:38:05;7.43;;;3.60;;
16171;SDS011;8192;53.596;10.166;2022-12-18T12:40:51;14.30;;;4.30;;
16171;SDS011;8192;53.596;10.166;2022-12-18T12:43:28;16.87;;;6.33;;
16171;SDS011;8192;53.596;10.166;2022-12-18T12:46:03;10.10;;;3.27;;
16171;SDS011;8192;53.596;10.166;2022-12-18T12:48:34;13.30;;;3.53;;
16171;SDS011;8192;53.596;10.166;2022-12-18T12:51:11;6.27;;;2.90;;
16171;SDS011;8192;53.596;10.166;2022-12-18T12:53:49;10.53;;;3.50;;
16171;SDS011;8192;53.596;10.166;2022-12-18T12:59:45;17.60;;;7.27;;
16171;SDS011;8192;53.596;10.166;2022-12-18T13:02:42;20.07;;;6.33;;
16171;SDS011;8192;53.596;10.166;2022-12-18T13:05:22;14.07;;;6.90;;
16171;SDS011;8192;53.596;10.166;2022-12-18T13:07:55;4.80;;;2.10;;
16171;SDS011;8192;53.596;10.166;2022-12-18T13:10:32;7.40;;;3.57;;
16171;SDS011;8192;53.596;10.166;2022-12-18T13:13:17;8.73;;;3.43;;
16171;SDS011;8192;53.596;10.166;2022-12-18T13:15:48;6.63;;;2.97;;
16171;SDS011;8192;53.596;10.166;2022-12-18T13:21:30;9.33;;;3.67;;
16171;SDS011;8192;53.596;10.166;2022-12-18T13:48:38;9.87;;;4.00;;
16171;SDS011;8192;53.596;10.166;2022-12-18T13:51:16;2.10;;;0.73;;
16171;SDS011;8192;53.596;10.166;2022-12-18T13:54:00;7.93;;;6.70;;
16171;SDS011;8192;53.596;10.166;2022-12-18T13:56:42;15.80;;;4.07;;
16171;SDS011;8192;53.596;10.166;2022-12-18T13:59:21;3.87;;;1.87;;
16171;SDS011;8192;53.596;10.166;2022-12-18T14:02:31;8.27;;;4.00;;
16171;SDS011;8192;53.596;10.166;2022-12-18T14:05:20;0.47;;;0.47;;
16171;SDS011;8192;53.596;10.166;2022-12-18T14:08:26;2.77;;;0.83;;
16171;SDS011;8192;53.596;10.166;2022-12-18T14:11:18;9.23;;;4.07;;
16171;SDS011;8192;53.596;10.166;2022-12-18T14:14:02;16.07;;;4.77;;
16171;SDS011;8192;53.596;10.166;2022-12-18T14:16:33;3.80;;;1.30;;
16171;SDS011;8192;53.596;10.166;2022-12-18T14:19:08;15.87;;;3.97;;
16171;SDS011;8192;53.596;10.166;2022-12-18T14:21:55;25.17;;;8.57;;
16171;SDS011;8192;53.596;10.166;2022-12-18T14:27:46;4.73;;;3.03;;
16171;SDS011;8192;53.596;10.166;2022-12-18T14:30:29;1.30;;;1.20;;
16171;SDS011;8192;53.596;10.166;2022-12-18T14:33:03;18.20;;;6.77;;
16171;SDS011;8192;53.596;10.166;2022-12-18T14:35:34;17.20;;;5.23;;
16171;SDS011;8192;53.596;10.166;2022-12-18T14:38:18;5.53;;;2.77;;
16171;SDS011;8192;53.596;10.166;2022-12-18T14:40:52;14.43;;;5.33;;
16171;SDS011;8192;53.596;10.166;2022-12-18T14:46:56;10.10;;;4.27;;
16171;SDS011;8192;53.596;10.166;2022-12-18T14:49:26;6.40;;;2.77;;
16171;SDS011;8192;53.596;10.166;2022-12-18T14:55:22;16.77;;;7.27;;
16171;SDS011;8192;53.596;10.166;2022-12-18T14:57:51;12.63;;;5.13;;
16171;SDS011;8192;53.596;10.166;2022-12-18T15:00:21;17.93;;;5.57;;
16171;SDS011;8192;53.596;10.166;2022-12-18T15:02:52;26.20;;;8.60;;
16171;SDS011;8192;53.596;10.166;2022-12-18T15:05:26;14.07;;;3.93;;
16171;SDS011;8192;53.596;10.166;2022-12-18T15:07:59;24.77;;;9.37;;
16171;SDS011;8192;53.596;10.166;2022-12-18T15:10:32;14.93;;;5.13;;
16171;SDS011;8192;53.596;10.166;2022-12-18T15:13:08;10.10;;;4.20;;
16171;SDS011;8192;53.596;10.166;2022-12-18T15:15:45;11.87;;;3.47;;
16171;SDS011;8192;53.596;10.166;2022-12-18T15:18:17;7.50;;;3.43;;
16171;SDS011;8192;53.596;10.166;2022-12-18T15:20:48;28.27;;;10.07;;
16171;SDS011;8192;53.596;10.166;2022-12-18T15:23:21;21.23;;;8.37;;
16171;SDS011;8192;53.596;10.166;2022-12-18T15:25:58;22.27;;;7.93;;
16171;SDS011;8192;53.596;10.166;2022-12-18T15:28:36;13.03;;;5.00;;
16171;SDS011;8192;53.596;10.166;2022-12-18T15:31:06;5.43;;;3.10;;
16171;SDS011;8192;53.596;10.166;2022-12-18T15:34:01;20.83;;;7.77;;
16171;SDS011;8192;53.596;10.166;2022-12-18T15:43:59;7.43;;;4.53;;
16171;SDS011;8192;53.596;10.166;2022-12-18T15:46:35;14.40;;;6.73;;
16171;SDS011;8192;53.596;10.166;2022-12-18T15:49:04;5.33;;;2.67;;
16171;SDS011;8192;53.596;10.166;2022-12-18T15:51:42;36.77;;;12.93;;
16171;SDS011;8192;53.596;10.166;2022-12-18T15:57:04;28.40;;;9.07;;
16171;SDS011;8192;53.596;10.166;2022-12-18T15:59:56;11.43;;;4.00;;
16171;SDS011;8192;53.596;10.166;2022-12-18T16:02:26;15.97;;;6.13;;
16171;SDS011;8192;53.596;10.166;2022-12-18T16:04:56;20.97;;;7.83;;
16171;SDS011;8192;53.596;10.166;2022-12-18T16:07:28;46.30;;;16.50;;
16171;SDS011;8192;53.596;10.166;2022-12-18T16:09:57;25.47;;;8.97;;
16171;SDS011;8192;53.596;10.166;2022-12-18T16:12:28;47.77;;;15.60;;
16171;SDS011;8192;53.596;10.166;2022-12-18T16:14:59;47.00;;;14.27;;
16171;SDS011;8192;53.596;10.166;2022-12-18T16:17:29;41.53;;;14.07;;
16171;SDS011;8192;53.596;10.166;2022-12-18T16:20:06;51.73;;;18.27;;
16171;SDS011;8192;53.596;10.166;2022-12-18T16:25:33;47.60;;;17.13;;
16171;SDS011;8192;53.596;10.166;2022-12-18T16:28:01;39.77;;;11.10;;
16171;SDS011;8192;53.596;10.166;2022-12-18T16:30:50;21.23;;;6.73;;
16171;SDS011;8192;53.596;10.166;2022-12-18T16:33:22;38.80;;;14.60;;
16171;SDS011;8192;53.596;10.166;2022-12-18T16:35:58;14.60;;;4.13;;
16171;SDS011;8192;53.596;10.166;2022-12-18T16:38:33;17.63;;;7.57;;
16171;SDS011;8192;53.596;10.166;2022-12-18T16:41:11;12.00;;;3.87;;
16171;SDS011;8192;53.596;10.166;2022-12-18T16:44:00;38.47;;;16.27;;
16171;SDS011;8192;53.596;10.166;2022-12-18T16:46:42;27.20;;;10.13;;
16171;SDS011;8192;53.596;10.166;2022-12-18T16:49:12;13.40;;;3.67;;
16171;SDS011;8192;53.596;10.166;2022-12-18T16:51:40;4.33;;;1.40;;
16171;SDS011;8192;53.596;10.166;2022-12-18T16:54:17;47.77;;;18.43;;
16171;SDS011;8192;53.596;10.166;2022-12-18T16:56:45;16.93;;;7.90;;
16171;SDS011;8192;53.596;10.166;2022-12-18T16:59:17;12.37;;;5.13;;
16171;SDS011;8192;53.596;10.166;2022-12-18T17:01:53;21.97;;;9.23;;
16171;SDS011;8192;53.596;10.166;2022-12-18T17:04:49;28.17;;;11.07;;
16171;SDS011;8192;53.596;10.166;2022-12-18T17:07:45;21.30;;;8.47;;
16171;SDS011;8192;53.596;10.166;2022-12-18T17:10:14;23.23;;;7.60;;
16171;SDS011;8192;53.596;10.166;2022-12-18T17:12:43;36.73;;;13.87;;
16171;SDS011;8192;53.596;10.166;2022-12-18T17:15:12;24.07;;;9.40;;
16171;SDS011;8192;53.596;10.166;2022-12-18T17:17:45;24.33;;;7.47;;
16171;SDS011;8192;53.596;10.166;2022-12-18T17:20:20;27.30;;;10.03;;
16171;SDS011;8192;53.596;10.166;2022-12-18T17:22:51;27.87;;;11.13;;
16171;SDS011;8192;53.596;10.166;2022-12-18T17:25:19;7.97;;;3.80;;
16171;SDS011;8192;53.596;10.166;2022-12-18T17:28:01;35.37;;;14.03;;
16171;SDS011;8192;53.596;10.166;2022-12-18T17:30:29;12.53;;;5.57;;
16171;SDS011;8192;53.596;10.166;2022-12-18T17:32:59;14.80;;;5.20;;
16171;SDS011;8192;53.596;10.166;2022-12-18T17:35:26;16.63;;;6.90;;
16171;SDS011;8192;53.596;10.166;2022-12-18T17:37:56;23.93;;;8.43;;
16171;SDS011;8192;53.596;10.166;2022-12-18T17:40:25;30.93;;;12.70;;
16171;SDS011;8192;53.596;10.166;2022-12-18T17:42:55;10.73;;;4.73;;
16171;SDS011;8192;53.596;10.166;2022-12-18T17:45:37;19.90;;;7.47;;
16171;SDS011;8192;53.596;10.166;2022-12-18T17:48:14;22.87;;;8.47;;
16171;SDS011;8192;53.596;10.166;2022-12-18T17:50:47;21.13;;;8.27;;
16171;SDS011;8192;53.596;10.166;2022-12-18T17:53:17;31.80;;;13.93;;
16171;SDS011;8192;53.596;10.166;2022-12-18T17:55:52;23.57;;;9.17;;
16171;SDS011;8192;53.596;10.166;2022-12-18T17:58:22;7.57;;;3.30;;
16171;SDS011;8192;53.596;10.166;2022-12-18T18:00:51;21.13;;;9.30;;
16171;SDS011;8192;53.596;10.166;2022-12-18T18:03:39;37.73;;;14.70;;
16171;SDS011;8192;53.596;10.166;2022-12-18T18:06:18;34.27;;;14.30;;
16171;SDS011;8192;53.596;10.166;2022-12-18T18:08:46;29.63;;;11.53;;
16171;SDS011;8192;53.596;10.166;2022-12-18T18:11:14;19.23;;;9.70;;
16171;SDS011;8192;53.596;10.166;2022-12-18T18:14:03;10.60;;;5.20;;
16171;SDS011;8192;53.596;10.166;2022-12-18T18:16:33;32.87;;;14.00;;
16171;SDS011;8192;53.596;10.166;2022-12-18T18:19:37;24.93;;;9.00;;
16171;SDS011;8192;53.596;10.166;2022-12-18T18:22:07;15.67;;;6.50;;
16171;SDS011;8192;53.596;10.166;2022-12-18T18:24:41;17.30;;;7.50;;
16171;SDS011;8192;53.596;10.166;2022-12-18T18:27:12;17.80;;;7.50;;
16171;SDS011;8192;53.596;10.166;2022-12-18T18:30:03;12.37;;;4.87;;
16171;SDS011;8192;53.596;10.166;2022-12-18T18:32:32;22.00;;;9.20;;
16171;SDS011;8192;53.596;10.166;2022-12-18T18:35:07;10.50;;;4.20;;
16171;SDS011;8192;53.596;10.166;2022-12-18T18:37:36;15.37;;;5.27;;
16171;SDS011;8192;53.596;10.166;2022-12-18T18:40:04;12.10;;;5.10;;
16171;SDS011;8192;53.596;10.166;2022-12-18T18:42:38;14.00;;;6.47;;
16171;SDS011;8192;53.596;10.166;2022-12-18T18:45:08;12.80;;;4.93;;
16171;SDS011;8192;53.596;10.166;2022-12-18T18:47:36;22.77;;;8.93;;
16171;SDS011;8192;53.596;10.166;2022-12-18T18:50:04;24.07;;;9.27;;
16171;SDS011;8192;53.596;10.166;2022-12-18T18:52:40;22.50;;;9.47;;
16171;SDS011;8192;53.596;10.166;2022-12-18T18:55:15;25.03;;;8.43;;
16171;SDS011;8192;53.596;10.166;2022-12-18T18:57:51;24.07;;;10.37;;
16171;SDS011;8192;53.596;10.166;2022-12-18T19:00:29;20.87;;;8.30;;
16171;SDS011;8192;53.596;10.166;2022-12-18T19:03:02;11.57;;;5.33;;
16171;SDS011;8192;53.596;10.166;2022-12-18T19:05:31;15.33;;;5.63;;
16171;SDS011;8192;53.596;10.166;2022-12-18T19:08:07;27.07;;;9.13;;
16171;SDS011;8192;53.596;10.166;2022-12-18T19:10:50;20.83;;;9.37;;
16171;SDS011;8192;53.596;10.166;2022-12-18T19:13:52;1.40;;;1.30;;
16171;SDS011;8192;53.596;10.166;2022-12-18T19:16:23;7.10;;;3.27;;
16171;SDS011;8192;53.596;10.166;2022-12-18T19:19:36;17.20;;;7.43;;
16171;SDS011;8192;53.596;10.166;2022-12-18T19:25:35;9.53;;;4.20;;
16171;SDS011;8192;53.596;10.166;2022-12-18T19:28:09;13.37;;;4.93;;
16171;SDS011;8192;53.596;10.166;2022-12-18T19:31:05;10.30;;;5.00;;
16171;SDS011;8192;53.596;10.166;2022-12-18T19:33:39;9.00;;;3.27;;
16171;SDS011;8192;53.596;10.166;2022-12-18T19:36:14;10.80;;;5.77;;
16171;SDS011;8192;53.596;10.166;2022-12-18T19:39:00;32.77;;;14.13;;
16171;SDS011;8192;53.596;10.166;2022-12-18T19:41:59;25.03;;;11.33;;
16171;SDS011;8192;53.596;10.166;2022-12-18T19:44:38;15.80;;;7.07;;
16171;SDS011;8192;53.596;10.166;2022-12-18T19:47:13;18.00;;;8.23;;
16171;SDS011;8192;53.596;10.166;2022-12-18T19:49:57;14.73;;;5.87;;
16171;SDS011;8192;53.596;10.166;2022-12-18T19:52:27;20.87;;;8.13;;
16171;SDS011;8192;53.596;10.166;2022-12-18T19:54:59;4.07;;;1.97;;
16171;SDS011;8192;53.596;10.166;2022-12-18T19:57:34;18.70;;;8.40;;
16171;SDS011;8192;53.596;10.166;2022-12-18T20:00:08;15.87;;;7.07;;
16171;SDS011;8192;53.596;10.166;2022-12-18T20:02:54;18.73;;;6.13;;
16171;SDS011;8192;53.596;10.166;2022-12-18T20:05:40;21.03;;;8.43;;
16171;SDS011;8192;53.596;10.166;2022-12-18T20:08:11;18.50;;;8.37;;
16171;SDS011;8192;53.596;10.166;2022-12-18T20:10:45;3.23;;;2.00;;
16171;SDS011;8192;53.596;10.166;2022-12-18T20:23:08;20.60;;;8.63;;
16171;SDS011;8192;53.596;10.166;2022-12-18T20:25:51;7.47;;;4.90;;
16171;SDS011;8192;53.596;10.166;2022-12-18T20:28:28;19.03;;;8.83;;
16171;SDS011;8192;53.596;10.166;2022-12-18T20:31:05;20.73;;;9.70;;
16171;SDS011;8192;53.596;10.166;2022-12-18T20:34:06;18.37;;;6.67;;
16171;SDS011;8192;53.596;10.166;2022-12-18T20:36:51;17.60;;;6.77;;
16171;SDS011;8192;53.596;10.166;2022-12-18T20:39:45;5.27;;;2.87;;
16171;SDS011;8192;53.596;10.166;2022-12-18T20:45:51;17.27;;;8.00;;
16171;SDS011;8192;53.596;10.166;2022-12-18T20:52:30;17.77;;;8.03;;
16171;SDS011;8192;53.596;10.166;2022-12-18T20:55:16;8.57;;;3.87;;
16171;SDS011;8192;53.596;10.166;2022-12-18T20:57:56;13.97;;;5.17;;